Time;durP1;ratioP1;P1;durP2;ratioP2;P2;SDS_P1;SDS_P2;PMS_P1;PMS_P2;Temp;Humidity;BMP_temperature;BMP_pressure;BME280_temperature;BME280_humidity;BME280_pressure;Samples;Min_cycle;Max_cycle;Signal;HPM_P1;HPM_P2
2023/03/28 00:00:20;;;;;;;3.90;2.10;;;1.90;1.00;;;;;;4930815;29;20205;-74
2023/03/28 00:02:46;;;;;;;2.53;1.93;;;2.30;1.00;;;;;;4930203;29;20180;-74
2023/03/28 00:05:12;;;;;;;2.00;1.60;;;1.90;1.00;;;;;;4932011;29;20216;-74
2023/03/28 00:07:38;;;;;;;2.53;1.97;;;1.90;1.00;;;;;;4931162;29;20516;-74
2023/03/28 00:10:05;;;;;;;4.50;2.00;;;2.30;1.00;;;;;;4930582;29;20493;-74
2023/03/28 00:12:31;;;;;;;7.03;2.20;;;1.80;1.00;;;;;;4930707;29;20486;-74
2023/03/28 00:14:57;;;;;;;3.57;2.07;;;1.70;1.00;;;;;;4930770;29;20484;-74
2023/03/28 00:17:23;;;;;;;3.40;2.20;;;2.20;1.00;;;;;;4932195;29;20264;-74
2023/03/28 00:19:52;;;;;;;3.33;2.43;;;1.60;1.00;;;;;;4923756;29;20205;-74
2023/03/28 00:22:19;;;;;;;3.80;2.50;;;2.00;1.00;;;;;;4930219;29;20529;-74
2023/03/28 00:24:47;;;;;;;4.30;2.77;;;1.60;1.00;;;;;;4935195;29;20631;-74
2023/03/28 00:27:16;;;;;;;4.43;2.60;;;1.60;1.00;;;;;;4935044;29;20436;-74
2023/03/28 00:29:42;;;;;;;5.93;2.90;;;1.60;1.00;;;;;;4928208;29;20492;-74
2023/03/28 00:32:08;;;;;;;4.00;3.00;;;1.60;1.00;;;;;;4931290;29;20487;-73
2023/03/28 00:34:34;;;;;;;3.17;2.50;;;1.70;1.00;;;;;;4934854;29;20451;-74
2023/03/28 00:37:01;;;;;;;2.53;2.10;;;1.60;1.00;;;;;;4935400;29;20624;-73
2023/03/28 00:39:28;;;;;;;4.23;2.40;;;1.60;1.00;;;;;;4930176;29;20228;-74
2023/03/28 00:41:55;;;;;;;4.00;2.33;;;1.60;1.00;;;;;;4934778;29;20433;-74
2023/03/28 00:44:51;;;;;;;3.97;2.30;;;2.00;1.00;;;;;;4934422;29;20512;-74
2023/03/28 00:47:35;;;;;;;2.20;2.00;;;1.50;1.00;;;;;;4929786;29;20448;-75
2023/03/28 00:50:19;;;;;;;3.90;2.10;;;1.50;1.00;;;;;;4929252;29;20456;-74
2023/03/28 00:53:12;;;;;;;4.07;2.30;;;1.50;1.00;;;;;;4935469;29;20572;-75
2023/03/28 00:56:13;;;;;;;3.60;2.20;;;1.50;1.00;;;;;;4932893;29;20461;-74
2023/03/28 00:58:42;;;;;;;2.80;2.33;;;1.50;1.00;;;;;;4922470;29;20449;-74
2023/03/28 01:01:12;;;;;;;3.83;2.73;;;1.40;1.00;;;;;;4934422;29;20560;-74
2023/03/28 01:03:40;;;;;;;4.40;2.40;;;1.50;1.00;;;;;;4932015;29;20443;-75
2023/03/28 01:06:08;;;;;;;3.07;2.50;;;1.60;1.00;;;;;;4932309;29;20440;-75
2023/03/28 01:08:37;;;;;;;3.70;2.70;;;1.40;1.00;;;;;;4935131;29;20437;-74
2023/03/28 01:11:03;;;;;;;5.03;2.53;;;1.40;1.00;;;;;;4934062;29;20460;-75
2023/03/28 01:13:31;;;;;;;5.30;2.60;;;1.60;1.00;;;;;;4935291;29;20429;-74
2023/03/28 01:16:01;;;;;;;6.60;2.30;;;1.30;1.00;;;;;;4932689;29;20475;-74
2023/03/28 01:18:29;;;;;;;3.37;2.10;;;1.30;1.00;;;;;;4931462;29;20511;-74
2023/03/28 01:21:54;;;;;;;2.93;2.30;;;1.20;1.00;;;;;;4929374;29;20548;-75
2023/03/28 01:24:44;;;;;;;4.03;2.50;;;1.20;1.00;;;;;;4930935;29;20997;-74
2023/03/28 01:27:51;;;;;;;4.03;2.27;;;1.10;1.00;;;;;;4927985;29;20528;-74
2023/03/28 01:30:19;;;;;;;6.40;2.60;;;1.10;1.00;;;;;;4942841;29;20796;-74
2023/03/28 01:32:51;;;;;;;3.37;2.90;;;1.10;1.00;;;;;;4932657;29;20437;-75
2023/03/28 01:35:32;;;;;;;7.43;2.70;;;1.00;1.00;;;;;;4931930;29;20465;-74
2023/03/28 01:38:30;;;;;;;6.80;2.90;;;1.00;1.00;;;;;;4927807;29;20815;-75
2023/03/28 01:41:07;;;;;;;4.67;3.00;;;1.00;1.00;;;;;;4933769;29;20831;-74
2023/03/28 01:43:57;;;;;;;5.33;2.67;;;1.00;1.00;;;;;;4928471;29;20598;-74
2023/03/28 01:46:29;;;;;;;4.87;2.33;;;0.90;1.00;;;;;;4933762;29;20452;-74
2023/03/28 01:49:26;;;;;;;3.97;2.30;;;0.90;1.00;;;;;;4926518;29;20428;-74
2023/03/28 01:51:57;;;;;;;5.70;2.60;;;0.90;1.00;;;;;;4933560;29;20487;-75
2023/03/28 01:55:05;;;;;;;3.70;2.67;;;0.90;1.00;;;;;;4933970;29;20433;-74
2023/03/28 01:57:54;;;;;;;5.87;2.70;;;0.90;1.00;;;;;;4929931;29;20447;-74
2023/03/28 02:00:30;;;;;;;8.20;3.20;;;0.90;1.00;;;;;;4933794;29;20464;-75
2023/03/28 02:03:30;;;;;;;6.17;2.93;;;1.10;1.00;;;;;;4925553;29;20445;-75
2023/03/28 02:05:56;;;;;;;4.30;2.63;;;0.80;1.00;;;;;;4925227;29;20519;-74
2023/03/28 02:08:29;;;;;;;6.23;3.03;;;1.30;1.00;;;;;;4931742;29;20441;-74
2023/03/28 02:10:56;;;;;;;4.60;3.00;;;0.80;1.00;;;;;;4928707;29;20457;-74
2023/03/28 02:13:28;;;;;;;3.00;2.70;;;0.80;1.00;;;;;;4934384;29;20840;-74
2023/03/28 02:15:56;;;;;;;5.13;2.70;;;0.80;1.00;;;;;;4930086;29;20460;-74
2023/03/28 02:18:28;;;;;;;8.67;5.17;;;1.20;1.00;;;;;;4934045;29;20436;-74
2023/03/28 02:20:58;;;;;;;6.20;3.97;;;0.70;1.00;;;;;;4931693;29;20460;-74
2023/03/28 02:23:31;;;;;;;5.97;3.07;;;0.70;1.00;;;;;;4934270;29;20796;-74
2023/03/28 02:25:57;;;;;;;5.00;3.93;;;0.70;1.00;;;;;;4933156;29;20436;-74
2023/03/28 02:28:24;;;;;;;5.90;4.00;;;0.70;1.00;;;;;;4932050;29;20974;-74
2023/03/28 02:30:50;;;;;;;6.87;4.00;;;0.70;1.00;;;;;;4932797;29;20216;-74
2023/03/28 02:33:31;;;;;;;7.07;4.00;;;0.70;1.00;;;;;;4933369;29;20588;-74
2023/03/28 02:36:22;;;;;;;5.23;3.27;;;0.80;1.00;;;;;;4926370;29;20464;-74
2023/03/28 02:39:16;;;;;;;4.53;2.97;;;0.70;1.00;;;;;;4931498;29;20490;-74
2023/03/28 02:42:13;;;;;;;4.50;2.87;;;0.70;1.00;;;;;;4931916;28;20436;-74
2023/03/28 02:45:14;;;;;;;6.33;3.00;;;0.70;1.00;;;;;;4932419;29;20460;-74
2023/03/28 02:48:20;;;;;;;3.57;3.00;;;0.70;1.00;;;;;;4931196;29;20440;-74
2023/03/28 02:50:55;;;;;;;6.03;2.83;;;0.70;1.00;;;;;;4931068;29;20987;-74
2023/03/28 02:53:37;;;;;;;4.43;3.00;;;0.60;1.00;;;;;;4933843;29;20421;-74
2023/03/28 02:56:30;;;;;;;3.70;2.93;;;1.10;1.00;;;;;;4925687;29;20491;-74
2023/03/28 02:59:06;;;;;;;8.43;3.50;;;0.80;1.00;;;;;;4930166;29;20441;-74
2023/03/28 03:01:32;;;;;;;4.83;3.23;;;0.80;1.00;;;;;;4931186;29;20487;-74
2023/03/28 03:03:59;;;;;;;3.27;2.70;;;1.20;1.00;;;;;;4925592;29;20508;-74
2023/03/28 03:06:25;;;;;;;5.70;3.33;;;0.70;1.00;;;;;;4932479;29;20449;-74
2023/03/28 03:08:50;;;;;;;5.63;3.57;;;0.70;1.00;;;;;;4930644;29;20470;-74
2023/03/28 03:11:16;;;;;;;12.20;3.80;;;0.70;1.00;;;;;;4932978;29;20183;-74
2023/03/28 03:13:42;;;;;;;4.67;3.53;;;1.10;1.00;;;;;;4932336;29;20263;-74
2023/03/28 03:16:08;;;;;;;9.37;3.83;;;0.60;1.00;;;;;;4931574;29;20256;-74
2023/03/28 03:18:34;;;;;;;6.80;3.33;;;0.60;1.00;;;;;;4932222;29;20417;-74
2023/03/28 03:21:00;;;;;;;5.80;3.57;;;0.60;1.00;;;;;;4928998;29;20971;-74
2023/03/28 03:23:26;;;;;;;3.03;2.73;;;0.60;1.00;;;;;;4932311;29;20259;-74
2023/03/28 03:25:51;;;;;;;7.30;3.40;;;0.60;1.00;;;;;;4931014;29;20524;-74
2023/03/28 03:28:17;;;;;;;6.73;3.30;;;0.60;1.00;;;;;;4929527;29;20188;-74
2023/03/28 03:30:43;;;;;;;4.27;3.07;;;1.00;1.00;;;;;;4930662;29;20295;-73
2023/03/28 03:33:09;;;;;;;5.93;3.90;;;0.90;1.00;;;;;;4932863;29;20189;-74
2023/03/28 03:35:35;;;;;;;5.00;4.10;;;0.90;1.00;;;;;;4931484;29;20212;-74
2023/03/28 03:38:02;;;;;;;5.30;3.30;;;0.40;1.00;;;;;;4932794;29;20425;-74
2023/03/28 03:40:27;;;;;;;5.83;3.50;;;0.30;1.00;;;;;;4929958;29;20457;-74
2023/03/28 03:42:53;;;;;;;4.83;3.20;;;0.80;1.00;;;;;;4932442;29;20961;-74
2023/03/28 03:45:18;;;;;;;3.70;3.23;;;0.70;1.00;;;;;;4930677;29;20305;-74
2023/03/28 03:47:44;;;;;;;5.83;4.20;;;0.40;1.00;;;;;;4931984;29;20339;-74
2023/03/28 03:50:09;;;;;;;4.93;3.27;;;0.30;1.00;;;;;;4929795;29;20220;-74
2023/03/28 03:52:35;;;;;;;5.07;3.20;;;0.70;1.00;;;;;;4931210;29;20723;-74
2023/03/28 03:55:01;;;;;;;4.00;3.17;;;0.70;1.00;;;;;;4931906;29;20564;-74
2023/03/28 03:57:27;;;;;;;5.37;3.37;;;0.30;1.00;;;;;;4931291;29;20485;-75
2023/03/28 03:59:53;;;;;;;6.03;3.43;;;0.60;1.00;;;;;;4930907;29;20291;-74
2023/03/28 04:02:18;;;;;;;3.67;3.17;;;0.70;1.00;;;;;;4930217;29;20185;-74
2023/03/28 04:04:44;;;;;;;3.57;3.10;;;0.20;1.00;;;;;;4932139;29;20199;-74
2023/03/28 04:07:11;;;;;;;11.13;3.57;;;0.70;1.00;;;;;;4930198;29;20177;-74
2023/03/28 04:09:37;;;;;;;6.23;3.30;;;0.70;1.00;;;;;;4931779;29;20664;-72
2023/03/28 04:12:04;;;;;;;4.43;3.10;;;0.20;1.00;;;;;;4931700;29;20456;-74
2023/03/28 04:14:30;;;;;;;6.47;3.40;;;0.20;1.00;;;;;;4930374;29;20675;-74
2023/03/28 04:16:56;;;;;;;4.03;3.20;;;0.10;1.00;;;;;;4930882;29;20536;-74
2023/03/28 04:19:23;;;;;;;5.30;3.23;;;0.10;1.00;;;;;;4932424;29;20197;-73
2023/03/28 04:21:51;;;;;;;6.73;3.67;;;0.50;1.00;;;;;;4929936;29;20491;-74
2023/03/28 04:24:19;;;;;;;6.37;3.37;;;0.10;1.00;;;;;;4931871;29;20496;-74
2023/03/28 04:26:48;;;;;;;4.63;3.27;;;0.50;1.00;;;;;;4940472;29;20564;-74
2023/03/28 04:29:16;;;;;;;6.00;3.70;;;0.00;1.00;;;;;;4930821;29;20460;-74
2023/03/28 04:31:48;;;;;;;7.17;3.20;;;0.40;1.00;;;;;;4928994;29;20520;-73
2023/03/28 04:34:15;;;;;;;5.40;3.30;;;0.00;1.00;;;;;;4930263;29;20425;-74
2023/03/28 04:36:40;;;;;;;4.87;3.17;;;0.40;1.00;;;;;;4930061;29;20496;-73
2023/03/28 04:39:07;;;;;;;4.50;2.93;;;-0.10;1.00;;;;;;4922148;29;20493;-74
2023/03/28 04:41:33;;;;;;;3.80;3.13;;;0.40;1.00;;;;;;4932009;29;20184;-74
2023/03/28 04:43:59;;;;;;;5.70;4.17;;;0.30;1.00;;;;;;4928850;29;20444;-74
2023/03/28 04:46:24;;;;;;;4.60;3.80;;;0.30;1.00;;;;;;4932184;29;20192;-74
2023/03/28 04:48:50;;;;;;;7.40;3.70;;;-0.10;1.00;;;;;;4930524;29;20859;-74
2023/03/28 04:51:15;;;;;;;3.47;3.10;;;-0.10;1.00;;;;;;4931984;29;20650;-74
2023/03/28 04:53:41;;;;;;;8.53;4.50;;;0.30;1.00;;;;;;4930822;29;20225;-74
2023/03/28 04:56:07;;;;;;;5.87;4.60;;;-0.40;1.00;;;;;;4929840;29;20572;-74
2023/03/28 04:58:33;;;;;;;7.43;3.60;;;-0.20;1.00;;;;;;4929756;29;20545;-73
2023/03/28 05:01:02;;;;;;;4.93;3.50;;;0.30;1.00;;;;;;4931251;29;20445;-73
2023/03/28 05:03:28;;;;;;;8.70;3.70;;;-0.30;1.00;;;;;;4929926;29;20651;-74
2023/03/28 05:05:53;;;;;;;11.30;3.83;;;-0.30;1.00;;;;;;4931047;29;20444;-74
2023/03/28 05:08:23;;;;;;;4.93;3.50;;;-0.10;1.00;;;;;;4930469;29;20196;-74
2023/03/28 05:10:49;;;;;;;6.73;3.23;;;-0.20;1.00;;;;;;4934718;29;20259;-74
2023/03/28 05:13:15;;;;;;;7.47;3.73;;;-0.20;1.00;;;;;;4934515;29;20448;-74
2023/03/28 05:15:41;;;;;;;5.37;3.60;;;0.20;1.00;;;;;;4932984;29;20789;-72
2023/03/28 05:18:07;;;;;;;4.90;4.17;;;-0.20;1.00;;;;;;4933185;29;21010;-74
2023/03/28 05:20:33;;;;;;;6.20;3.33;;;-0.20;1.00;;;;;;4934450;29;20441;-74
2023/03/28 05:23:00;;;;;;;7.13;4.10;;;0.10;1.00;;;;;;4934134;29;20287;-74
2023/03/28 05:25:25;;;;;;;6.37;3.90;;;0.30;1.00;;;;;;4934394;29;20544;-74
2023/03/28 05:27:51;;;;;;;6.10;3.70;;;0.00;1.00;;;;;;4930172;29;20475;-74
2023/03/28 05:30:17;;;;;;;8.50;3.97;;;0.40;1.00;;;;;;4929078;29;20219;-74
2023/03/28 05:32:43;;;;;;;9.43;3.80;;;0.30;1.00;;;;;;4933344;29;20187;-74
2023/03/28 05:35:10;;;;;;;6.60;3.67;;;0.50;1.00;;;;;;4933628;29;20520;-73
2023/03/28 05:37:36;;;;;;;8.13;4.37;;;-0.30;1.00;;;;;;4934966;29;20201;-79
2023/03/28 05:40:06;;;;;;;5.07;3.70;;;0.20;1.00;;;;;;4930271;29;20572;-74
2023/03/28 05:42:33;;;;;;;6.53;4.07;;;0.10;1.00;;;;;;4934672;29;21132;-74
2023/03/28 05:44:58;;;;;;;6.73;3.70;;;0.60;1.00;;;;;;4933249;29;20477;-74
2023/03/28 05:47:24;;;;;;;7.93;4.10;;;0.50;1.00;;;;;;4934784;29;20964;-74
2023/03/28 05:49:49;;;;;;;9.80;4.90;;;0.60;1.00;;;;;;4933994;29;20220;-79
2023/03/28 05:52:15;;;;;;;12.27;5.60;;;0.60;1.00;;;;;;4933995;29;20181;-73
2023/03/28 05:54:41;;;;;;;14.63;6.60;;;0.70;1.00;;;;;;4931841;29;20191;-73
2023/03/28 05:57:06;;;;;;;15.93;7.10;;;0.30;1.00;;;;;;4928284;29;20245;-73
2023/03/28 05:59:32;;;;;;;11.73;6.70;;;0.50;1.00;;;;;;4928530;29;20197;-73
2023/03/28 06:01:59;;;;;;;11.17;6.53;;;0.50;1.00;;;;;;4932038;29;20182;-73
2023/03/28 06:04:24;;;;;;;16.70;6.30;;;0.60;1.00;;;;;;4934437;29;20421;-73
2023/03/28 06:06:51;;;;;;;11.93;6.10;;;1.20;1.00;;;;;;4930598;29;20521;-72
2023/03/28 06:09:17;;;;;;;10.40;5.80;;;0.80;1.00;;;;;;4932806;29;20260;-73
2023/03/28 06:11:43;;;;;;;12.47;5.87;;;1.20;1.00;;;;;;4931736;29;20436;-72
2023/03/28 06:14:09;;;;;;;16.60;6.03;;;0.90;1.00;;;;;;4933931;29;20452;-73
2023/03/28 06:16:35;;;;;;;13.82;6.70;;;1.00;1.00;;;;;;4933062;29;20433;-73
2023/03/28 06:19:01;;;;;;;10.87;6.40;;;1.20;1.00;;;;;;4931638;29;20307;-75
2023/03/28 06:21:26;;;;;;;12.20;6.10;;;1.30;1.00;;;;;;4932536;29;20548;-73
2023/03/28 06:23:52;;;;;;;8.73;5.43;;;1.80;1.00;;;;;;4933552;29;20204;-74
2023/03/28 06:26:18;;;;;;;14.57;5.50;;;2.30;1.00;;;;;;4933476;29;20204;-74
2023/03/28 06:28:43;;;;;;;10.13;5.63;;;3.70;1.00;;;;;;4931546;29;20189;-72
2023/03/28 06:31:11;;;;;;;11.03;4.90;;;3.70;1.00;;;;;;4933429;29;20189;-74
2023/03/28 06:33:39;;;;;;;12.10;4.77;;;4.60;1.00;;;;;;4934037;29;20189;-75
2023/03/28 06:36:09;;;;;;;7.80;5.10;;;5.40;1.00;;;;;;4933073;29;20548;-75
2023/03/28 06:38:35;;;;;;;6.90;4.90;;;6.20;1.00;;;;;;4932567;29;20440;-75
2023/03/28 06:41:00;;;;;;;7.03;4.70;;;7.00;1.00;;;;;;4932688;29;20449;-75
2023/03/28 06:43:26;;;;;;;9.80;4.83;;;7.70;1.00;;;;;;4932329;29;20185;-75
2023/03/28 06:45:51;;;;;;;7.73;4.47;;;8.20;1.00;;;;;;4931444;29;20197;-75
2023/03/28 06:48:18;;;;;;;7.20;4.60;;;8.40;1.00;;;;;;4932427;29;20518;-75
2023/03/28 06:50:49;;;;;;;8.60;5.30;;;8.10;1.00;;;;;;4931576;29;20221;-75
2023/03/28 06:53:18;;;;;;;7.60;4.90;;;7.60;1.00;;;;;;4924962;29;20871;-75
2023/03/28 06:55:44;;;;;;;8.80;4.97;;;7.00;1.00;;;;;;4931534;29;20476;-75
2023/03/28 06:58:10;;;;;;;7.27;4.50;;;5.90;1.00;;;;;;4933517;29;20509;-74
2023/03/28 07:00:36;;;;;;;6.37;4.10;;;6.60;1.00;;;;;;4932907;29;20543;-75
2023/03/28 07:03:01;;;;;;;5.93;4.37;;;7.10;1.00;;;;;;4933070;29;20243;-74
2023/03/28 07:05:27;;;;;;;7.60;4.30;;;7.40;1.00;;;;;;4932628;29;20951;-75
2023/03/28 07:07:53;;;;;;;4.50;3.83;;;7.30;1.00;;;;;;4932776;29;20225;-74
2023/03/28 07:10:18;;;;;;;7.33;4.50;;;6.80;1.00;;;;;;4932268;29;20216;-74
2023/03/28 07:12:44;;;;;;;6.60;4.13;;;6.30;1.00;;;;;;4931847;29;20197;-75
2023/03/28 07:15:10;;;;;;;4.80;4.20;;;6.10;1.00;;;;;;4932112;29;20209;-75
2023/03/28 07:17:35;;;;;;;5.43;3.70;;;5.90;1.00;;;;;;4932707;29;20611;-74
2023/03/28 07:20:03;;;;;;;12.00;4.10;;;6.70;1.00;;;;;;4931882;29;20545;-74
2023/03/28 07:22:28;;;;;;;11.70;4.37;;;6.60;1.00;;;;;;4921864;29;20188;-75
2023/03/28 07:24:54;;;;;;;6.00;4.00;;;7.70;1.00;;;;;;4927209;29;20449;-76
2023/03/28 07:27:20;;;;;;;5.17;3.83;;;8.90;1.00;;;;;;4931887;29;20189;-75
2023/03/28 07:29:46;;;;;;;8.17;3.90;;;9.90;1.00;;;;;;4930129;29;20308;-74
2023/03/28 07:32:12;;;;;;;8.60;4.00;;;11.00;1.00;;;;;;4925171;29;20523;-74
2023/03/28 07:34:38;;;;;;;7.60;3.70;;;11.90;1.00;;;;;;4930774;29;20189;-74
2023/03/28 07:37:04;;;;;;;7.77;3.37;;;12.50;1.00;;;;;;4930810;29;20197;-75
2023/03/28 07:39:30;;;;;;;6.33;3.57;;;13.10;1.00;;;;;;4932267;29;20461;-75
2023/03/28 07:41:55;;;;;;;5.83;3.10;;;13.40;1.00;;;;;;4931510;29;20189;-75
2023/03/28 07:44:21;;;;;;;7.87;4.10;;;13.90;1.00;;;;;;4930927;29;20189;-75
2023/03/28 07:46:46;;;;;;;10.53;3.60;;;14.30;1.00;;;;;;4929966;29;20260;-75
2023/03/28 07:49:14;;;;;;;5.50;3.90;;;14.40;1.00;;;;;;4929946;29;20248;-75
2023/03/28 07:51:40;;;;;;;9.43;4.33;;;14.90;1.00;;;;;;4929632;29;20193;-75
2023/03/28 07:54:06;;;;;;;9.10;4.03;;;15.50;1.00;;;;;;4931550;29;20444;-75
2023/03/28 07:56:32;;;;;;;9.57;4.20;;;15.80;1.00;;;;;;4928448;29;20587;-76
2023/03/28 07:58:57;;;;;;;9.43;4.30;;;16.10;1.00;;;;;;4928759;29;20999;-75
2023/03/28 08:01:23;;;;;;;9.10;3.87;;;16.10;1.00;;;;;;4925982;29;20185;-76
2023/03/28 08:03:49;;;;;;;7.87;4.40;;;16.70;1.00;;;;;;4930148;29;20196;-75
2023/03/28 08:06:15;;;;;;;13.33;4.17;;;16.70;1.00;;;;;;4928199;29;20543;-76
2023/03/28 08:08:40;;;;;;;7.27;3.90;;;16.20;1.00;;;;;;4931436;29;20197;-75
2023/03/28 08:11:06;;;;;;;8.07;4.13;;;16.60;1.00;;;;;;4928178;29;20209;-77
2023/03/28 08:13:32;;;;;;;9.40;4.43;;;17.00;1.00;;;;;;4931455;29;20652;-76
2023/03/28 08:15:57;;;;;;;7.63;4.03;;;16.80;1.00;;;;;;4929902;29;20325;-76
2023/03/28 08:18:24;;;;;;;9.00;4.20;;;16.70;1.00;;;;;;4928212;29;20272;-76
2023/03/28 08:20:57;;;;;;;8.57;4.67;;;16.50;1.00;;;;;;4928861;29;20204;-76
2023/03/28 08:23:23;;;;;;;10.50;3.87;;;17.10;1.00;;;;;;4930405;29;20437;-76
2023/03/28 08:25:48;;;;;;;9.93;4.30;;;17.90;1.00;;;;;;4927715;29;20880;-76
2023/03/28 08:28:14;;;;;;;6.50;3.83;;;18.40;1.00;;;;;;4926551;29;20193;-76
2023/03/28 08:30:39;;;;;;;9.10;4.03;;;18.40;1.00;;;;;;4928074;29;20658;-76
2023/03/28 08:33:06;;;;;;;13.03;3.87;;;18.20;1.00;;;;;;4927578;29;20195;-76
2023/03/28 08:35:32;;;;;;;11.73;4.53;;;17.90;1.00;;;;;;4927594;29;20295;-76
2023/03/28 08:37:58;;;;;;;7.37;4.17;;;18.20;1.00;;;;;;4927140;29;20615;-76
2023/03/28 08:40:25;;;;;;;12.80;4.20;;;19.20;1.00;;;;;;4927918;29;20211;-76
2023/03/28 08:43:03;;;;;;;10.97;4.30;;;19.90;1.00;;;;;;4929623;29;20440;-76
2023/03/28 08:45:45;;;;;;;8.73;4.30;;;19.80;1.00;;;;;;4932873;29;20459;-76
2023/03/28 08:48:26;;;;;;;9.80;4.43;;;20.00;1.00;;;;;;4938394;29;20456;-77
2023/03/28 08:51:08;;;;;;;12.60;4.20;;;20.90;1.00;;;;;;4930706;29;20472;-77
2023/03/28 08:53:42;;;;;;;8.13;3.00;;;20.60;1.00;;;;;;4933406;29;20436;-76
2023/03/28 08:56:08;;;;;;;13.30;3.50;;;20.00;1.00;;;;;;4934431;29;20470;-76
2023/03/28 08:59:06;;;;;;;9.17;3.90;;;20.40;1.00;;;;;;4932242;29;20448;-76
2023/03/28 09:01:32;;;;;;;6.67;3.10;;;21.20;1.00;;;;;;4933358;28;20268;-77
2023/03/28 09:03:59;;;;;;;6.47;3.30;;;21.20;1.00;;;;;;4933412;29;20507;-77
2023/03/28 09:06:37;;;;;;;5.70;2.70;;;21.60;1.00;;;;;;4931745;29;20181;-76
2023/03/28 09:09:17;;;;;;;7.40;2.67;;;20.10;1.00;;;;;;4933277;29;21001;-77
2023/03/28 09:11:53;;;;;;;6.50;3.20;;;20.00;1.00;;;;;;4931368;29;20440;-76
2023/03/28 09:14:44;;;;;;;7.53;2.87;;;20.50;1.00;;;;;;4929893;29;20847;-77
2023/03/28 09:17:18;;;;;;;6.33;3.00;;;21.40;1.00;;;;;;4931349;29;20454;-77
2023/03/28 09:20:10;;;;;;;8.53;2.70;;;21.90;1.00;;;;;;4931665;29;20539;-77
2023/03/28 09:22:47;;;;;;;9.23;2.90;;;22.80;1.00;;;;;;4931585;29;20444;-78
2023/03/28 09:25:21;;;;;;;6.00;2.70;;;23.50;1.00;;;;;;4923943;29;20818;-77
2023/03/28 09:27:46;;;;;;;5.60;2.77;;;24.00;1.00;;;;;;4929629;29;20444;-76
2023/03/28 09:30:18;;;;;;;5.77;2.27;;;23.60;1.00;;;;;;4931647;29;20835;-76
2023/03/28 09:32:48;;;;;;;4.83;2.40;;;22.30;1.00;;;;;;4933909;29;20184;-76
2023/03/28 09:35:18;;;;;;;5.80;2.50;;;21.20;1.00;;;;;;4932678;29;20468;-75
2023/03/28 09:37:51;;;;;;;8.30;2.33;;;19.90;1.00;;;;;;4929997;29;20851;-75
2023/03/28 09:40:28;;;;;;;5.30;2.30;;;20.40;1.00;;;;;;4932865;29;20445;-76
2023/03/28 09:43:05;;;;;;;9.90;2.97;;;21.30;1.00;;;;;;4930790;29;20490;-76
2023/03/28 09:45:48;;;;;;;6.93;2.27;;;21.20;1.00;;;;;;4917278;29;20528;-75
2023/03/28 09:48:21;;;;;;;8.23;2.40;;;21.60;1.00;;;;;;4931086;29;20451;-76
2023/03/28 09:50:47;;;;;;;5.80;2.20;;;22.20;1.00;;;;;;4931208;29;20471;-76
2023/03/28 09:53:20;;;;;;;4.87;2.00;;;23.00;1.00;;;;;;4932696;29;20951;-77
2023/03/28 09:55:46;;;;;;;12.17;2.00;;;23.10;1.00;;;;;;4929840;29;20212;-76
2023/03/28 09:58:17;;;;;;;6.03;2.23;;;22.60;1.00;;;;;;4926367;29;20475;-75
2023/03/28 10:00:47;;;;;;;8.33;2.00;;;21.90;1.00;;;;;;4931131;29;20255;-75
2023/03/28 10:03:31;;;;;;;4.83;1.70;;;21.90;1.00;;;;;;4933036;29;20412;-76
2023/03/28 10:06:23;;;;;;;4.10;1.70;;;22.80;1.00;;;;;;4932655;29;21092;-75
2023/03/28 10:08:48;;;;;;;5.70;1.80;;;23.30;1.00;;;;;;4933232;29;20460;-76
2023/03/28 10:11:18;;;;;;;6.80;2.13;;;23.30;1.00;;;;;;4932124;29;20424;-76
2023/03/28 10:13:49;;;;;;;8.53;2.03;;;22.90;1.00;;;;;;4929376;29;20260;-76
2023/03/28 10:16:23;;;;;;;8.40;1.80;;;21.40;1.00;;;;;;4933317;29;20468;-76
2023/03/28 10:18:49;;;;;;;6.23;1.90;;;20.10;1.00;;;;;;4930101;29;20437;-76
2023/03/28 10:21:19;;;;;;;4.20;1.93;;;20.30;1.00;;;;;;4933295;29;21017;-76
2023/03/28 10:23:53;;;;;;;4.47;1.90;;;20.70;1.00;;;;;;4933555;29;20511;-76
2023/03/28 10:26:25;;;;;;;5.10;1.87;;;18.70;1.00;;;;;;4932741;29;20428;-76
2023/03/28 10:28:53;;;;;;;5.20;2.10;;;16.50;1.00;;;;;;4934078;29;20425;-77
2023/03/28 10:31:30;;;;;;;3.70;1.80;;;16.40;1.00;;;;;;4932350;29;20860;-77
2023/03/28 10:33:58;;;;;;;4.87;2.17;;;16.00;1.00;;;;;;4933084;29;20432;-77
2023/03/28 10:36:39;;;;;;;8.33;2.57;;;16.40;1.00;;;;;;4931851;29;20556;-76
2023/03/28 10:39:34;;;;;;;5.53;2.20;;;18.70;1.00;;;;;;4932368;29;20448;-76
2023/03/28 10:42:01;;;;;;;5.63;2.60;;;20.30;1.00;;;;;;4931959;28;20432;-76
2023/03/28 10:44:27;;;;;;;6.27;2.00;;;20.60;1.00;;;;;;4932473;29;20425;-76
2023/03/28 10:46:54;;;;;;;4.10;2.00;;;21.30;1.00;;;;;;4931983;29;20499;-76
2023/03/28 10:49:20;;;;;;;5.67;2.30;;;21.90;1.00;;;;;;4932309;29;20213;-77
2023/03/28 10:51:46;;;;;;;5.10;2.23;;;22.10;1.00;;;;;;4933319;29;20436;-77
2023/03/28 10:54:16;;;;;;;4.87;2.03;;;21.30;1.00;;;;;;4933008;29;20943;-77
2023/03/28 10:57:03;;;;;;;5.87;2.23;;;22.10;1.00;;;;;;4931501;29;20205;-78
2023/03/28 11:00:07;;;;;;;7.07;2.10;;;23.10;1.00;;;;;;4932492;29;20448;-76
2023/03/28 11:03:14;;;;;;;5.60;2.17;;;24.00;1.00;;;;;;4927273;29;20428;-77
2023/03/28 11:05:59;;;;;;;5.27;1.93;;;24.60;1.00;;;;;;4933396;29;20445;-78
2023/03/28 11:08:34;;;;;;;2.87;1.43;;;24.60;1.00;;;;;;4933128;29;20915;-77
2023/03/28 11:11:08;;;;;;;6.97;2.20;;;24.00;1.00;;;;;;4931567;29;20466;-77
2023/03/28 11:13:52;;;;;;;3.47;1.73;;;23.90;1.00;;;;;;4933937;29;20425;-77
2023/03/28 11:16:28;;;;;;;6.73;2.40;;;23.90;1.00;;;;;;4931821;29;20487;-77
2023/03/28 11:19:06;;;;;;;4.73;1.87;;;23.60;1.00;;;;;;4933799;29;20447;-78
2023/03/28 11:21:56;;;;;;;6.60;2.50;;;23.60;1.00;;;;;;4933904;29;20421;-77
2023/03/28 11:24:22;;;;;;;3.80;2.07;;;23.30;1.00;;;;;;4931276;29;20431;-77
2023/03/28 11:27:06;;;;;;;7.30;2.40;;;23.60;1.00;;;;;;4932389;29;20453;-77
2023/03/28 11:29:42;;;;;;;8.50;2.33;;;24.00;1.00;;;;;;4925324;29;20552;-77
2023/03/28 11:32:16;;;;;;;4.93;1.90;;;24.30;1.00;;;;;;4932989;29;20500;-77
2023/03/28 11:34:58;;;;;;;4.00;1.90;;;24.60;1.00;;;;;;4933188;29;20431;-77
2023/03/28 11:37:33;;;;;;;3.60;1.93;;;24.70;1.00;;;;;;4933138;29;20765;-77
2023/03/28 11:40:22;;;;;;;8.30;2.30;;;24.50;1.00;;;;;;4933170;29;20954;-77
2023/03/28 11:42:55;;;;;;;4.43;2.10;;;24.20;1.00;;;;;;4928506;29;20417;-77
2023/03/28 11:45:30;;;;;;;6.70;2.47;;;24.00;1.00;;;;;;4930528;29;20440;-77
2023/03/28 11:48:12;;;;;;;6.70;2.47;;;24.50;1.00;;;;;;4932634;29;20781;-78
2023/03/28 11:51:22;;;;;;;5.70;2.20;;;23.70;1.00;;;;;;4931940;29;20468;-78
2023/03/28 11:54:15;;;;;;;4.40;2.10;;;22.50;1.00;;;;;;4914262;29;20449;-77
2023/03/28 11:57:01;;;;;;;4.77;2.23;;;22.30;1.00;;;;;;4910499;29;20987;-78
2023/03/28 11:59:37;;;;;;;4.83;2.70;;;23.30;1.00;;;;;;4922461;29;20884;-77
2023/03/28 12:02:14;;;;;;;4.87;2.50;;;23.30;1.00;;;;;;4931109;29;21001;-78
2023/03/28 12:04:49;;;;;;;6.83;2.40;;;23.50;1.00;;;;;;4931708;29;20962;-77
2023/03/28 12:07:29;;;;;;;5.87;2.70;;;24.20;1.00;;;;;;4928164;29;20452;-78
2023/03/28 12:10:22;;;;;;;7.10;2.40;;;23.90;1.00;;;;;;4930468;29;20467;-77
2023/03/28 12:13:16;;;;;;;5.23;2.40;;;23.90;1.00;;;;;;4928899;29;20444;-77
2023/03/28 12:16:05;;;;;;;5.20;2.40;;;22.90;1.00;;;;;;4930970;28;20459;-77
2023/03/28 12:18:48;;;;;;;5.33;2.23;;;21.40;1.00;;;;;;4919269;29;20488;-77
2023/03/28 12:21:18;;;;;;;4.80;2.50;;;21.00;1.00;;;;;;4933573;28;20432;-77
2023/03/28 12:24:05;;;;;;;5.50;2.50;;;20.20;1.00;;;;;;4932880;29;20471;-77
2023/03/28 12:27:01;;;;;;;6.93;2.37;;;20.70;1.00;;;;;;4926423;29;20962;-76
2023/03/28 12:29:37;;;;;;;4.50;2.30;;;21.30;1.00;;;;;;4931136;29;21030;-77
2023/03/28 12:32:17;;;;;;;4.47;2.30;;;21.80;1.00;;;;;;4933134;29;20495;-78
2023/03/28 12:34:52;;;;;;;5.23;2.63;;;22.70;1.00;;;;;;4935355;29;20464;-77
2023/03/28 12:37:27;;;;;;;4.80;2.20;;;22.90;1.00;;;;;;4932463;29;20432;-77
2023/03/28 12:40:09;;;;;;;5.50;2.60;;;23.90;1.00;;;;;;4934332;29;20542;-77
2023/03/28 12:42:38;;;;;;;7.73;2.40;;;24.60;1.00;;;;;;4935359;29;20444;-77
2023/03/28 12:45:10;;;;;;;5.23;2.70;;;24.80;1.00;;;;;;4934424;29;20424;-77
2023/03/28 12:47:39;;;;;;;5.03;2.27;;;24.10;1.00;;;;;;4934402;29;20839;-77
2023/03/28 12:50:14;;;;;;;4.63;2.23;;;23.70;1.00;;;;;;4934467;29;20974;-78
2023/03/28 12:52:44;;;;;;;7.10;2.13;;;24.00;1.00;;;;;;4935859;29;20436;-77
2023/03/28 12:55:24;;;;;;;4.20;2.40;;;24.70;1.00;;;;;;4933398;29;20983;-77
2023/03/28 12:58:10;;;;;;;6.53;2.23;;;25.30;1.00;;;;;;4933433;29;20443;-77
2023/03/28 13:01:07;;;;;;;4.07;2.47;;;23.90;1.00;;;;;;4926739;29;20456;-78
2023/03/28 13:03:43;;;;;;;5.60;2.63;;;21.60;1.00;;;;;;4926548;29;20440;-77
2023/03/28 13:06:26;;;;;;;5.30;2.67;;;22.00;1.00;;;;;;4933479;29;21016;-77
2023/03/28 13:09:10;;;;;;;5.87;2.57;;;25.90;1.00;;;;;;4934396;29;20851;-78
2023/03/28 13:11:40;;;;;;;6.33;2.40;;;26.20;1.00;;;;;;4926443;29;20811;-78
2023/03/28 13:14:20;;;;;;;3.50;2.00;;;26.70;1.00;;;;;;4935106;29;20507;-77
2023/03/28 13:16:55;;;;;;;4.13;2.30;;;26.60;1.00;;;;;;4927172;29;20503;-79
2023/03/28 13:19:41;;;;;;;4.50;2.30;;;25.10;1.00;;;;;;4929856;29;20459;-78
2023/03/28 13:22:26;;;;;;;5.30;2.53;;;24.20;1.00;;;;;;4944940;29;20440;-78
2023/03/28 13:24:52;;;;;;;5.70;2.67;;;23.80;1.00;;;;;;4928730;29;20943;-78
2023/03/28 13:27:32;;;;;;;5.00;2.50;;;23.70;1.00;;;;;;4933637;29;20548;-78
2023/03/28 13:30:03;;;;;;;4.70;2.63;;;24.70;1.00;;;;;;4927964;29;20884;-78